sensor_id;sensor_type;location;lat;lon;timestamp;temperature;humidity
36654;DHT22;22650;49.350;20.898;2024-01-11T00:01:54;-11.00;99.90
36654;DHT22;22650;49.350;20.898;2024-01-11T00:04:27;-11.00;99.90
36654;DHT22;22650;49.350;20.898;2024-01-11T00:07:02;-11.00;99.90
36654;DHT22;22650;49.350;20.898;2024-01-11T00:09:39;-11.10;99.90
36654;DHT22;22650;49.350;20.898;2024-01-11T00:12:13;-11.10;99.90
36654;DHT22;22650;49.350;20.898;2024-01-11T00:14:46;-11.00;99.90
36654;DHT22;22650;49.350;20.898;2024-01-11T00:17:19;-11.10;99.90
36654;DHT22;22650;49.350;20.898;2024-01-11T00:19:53;-11.10;99.90
36654;DHT22;22650;49.350;20.898;2024-01-11T00:22:28;-11.10;99.90
36654;DHT22;22650;49.350;20.898;2024-01-11T00:25:02;-11.10;99.90
36654;DHT22;22650;49.350;20.898;2024-01-11T00:27:36;-11.10;99.90
36654;DHT22;22650;49.350;20.898;2024-01-11T00:30:10;-11.20;99.90
36654;DHT22;22650;49.350;20.898;2024-01-11T00:32:43;-11.30;99.90
36654;DHT22;22650;49.350;20.898;2024-01-11T00:35:17;-11.30;99.90
36654;DHT22;22650;49.350;20.898;2024-01-11T00:37:52;-11.40;99.90
36654;DHT22;22650;49.350;20.898;2024-01-11T00:40:26;-11.40;99.90
36654;DHT22;22650;49.350;20.898;2024-01-11T00:42:59;-11.40;99.90
36654;DHT22;22650;49.350;20.898;2024-01-11T00:45:33;-11.30;99.90
36654;DHT22;22650;49.350;20.898;2024-01-11T00:48:07;-11.30;99.90
36654;DHT22;22650;49.350;20.898;2024-01-11T00:50:41;-11.30;99.90
36654;DHT22;22650;49.350;20.898;2024-01-11T00:53:16;-11.30;99.90
36654;DHT22;22650;49.350;20.898;2024-01-11T00:55:51;-11.30;99.90
36654;DHT22;22650;49.350;20.898;2024-01-11T00:58:25;-11.30;99.90
36654;DHT22;22650;49.350;20.898;2024-01-11T01:00:58;-11.30;99.90
36654;DHT22;22650;49.350;20.898;2024-01-11T01:03:32;-11.30;99.90
36654;DHT22;22650;49.350;20.898;2024-01-11T01:06:06;-11.40;99.90
36654;DHT22;22650;49.350;20.898;2024-01-11T01:08:41;-11.30;99.90
36654;DHT22;22650;49.350;20.898;2024-01-11T01:11:14;-11.40;99.90
36654;DHT22;22650;49.350;20.898;2024-01-11T01:13:48;-11.40;99.90
36654;DHT22;22650;49.350;20.898;2024-01-11T01:16:22;-11.40;99.90
36654;DHT22;22650;49.350;20.898;2024-01-11T01:18:55;-11.40;99.90
36654;DHT22;22650;49.350;20.898;2024-01-11T01:21:30;-11.40;99.90
36654;DHT22;22650;49.350;20.898;2024-01-11T01:24:05;-11.40;99.90
36654;DHT22;22650;49.350;20.898;2024-01-11T01:26:38;-11.40;99.90
36654;DHT22;22650;49.350;20.898;2024-01-11T01:29:12;-11.50;99.90
36654;DHT22;22650;49.350;20.898;2024-01-11T01:31:46;-11.40;99.90
36654;DHT22;22650;49.350;20.898;2024-01-11T01:34:20;-11.50;99.90
36654;DHT22;22650;49.350;20.898;2024-01-11T01:36:53;-11.50;99.90
36654;DHT22;22650;49.350;20.898;2024-01-11T01:39:28;-11.50;99.90
36654;DHT22;22650;49.350;20.898;2024-01-11T01:42:02;-11.50;99.90
36654;DHT22;22650;49.350;20.898;2024-01-11T01:44:36;-11.50;99.90
36654;DHT22;22650;49.350;20.898;2024-01-11T01:47:13;-11.50;99.90
36654;DHT22;22650;49.350;20.898;2024-01-11T01:49:48;-11.50;99.90
36654;DHT22;22650;49.350;20.898;2024-01-11T01:52:23;-11.50;99.90
36654;DHT22;22650;49.350;20.898;2024-01-11T01:54:58;-11.50;99.90
36654;DHT22;22650;49.350;20.898;2024-01-11T01:57:33;-11.50;99.90
36654;DHT22;22650;49.350;20.898;2024-01-11T02:00:09;-11.60;99.90
36654;DHT22;22650;49.350;20.898;2024-01-11T02:02:46;-11.60;99.90
36654;DHT22;22650;49.350;20.898;2024-01-11T02:05:23;-11.60;99.90
36654;DHT22;22650;49.350;20.898;2024-01-11T02:07:59;-11.60;99.90
36654;DHT22;22650;49.350;20.898;2024-01-11T02:10:35;-11.60;99.90
36654;DHT22;22650;49.350;20.898;2024-01-11T02:13:10;-11.60;99.90
36654;DHT22;22650;49.350;20.898;2024-01-11T02:15:45;-11.60;99.90
36654;DHT22;22650;49.350;20.898;2024-01-11T02:18:19;-11.70;99.90
36654;DHT22;22650;49.350;20.898;2024-01-11T02:20:53;-11.70;99.90
36654;DHT22;22650;49.350;20.898;2024-01-11T02:23:26;-11.70;99.90
36654;DHT22;22650;49.350;20.898;2024-01-11T02:26:02;-11.70;99.90
36654;DHT22;22650;49.350;20.898;2024-01-11T02:28:36;-11.70;99.90
36654;DHT22;22650;49.350;20.898;2024-01-11T02:31:10;-11.70;99.90
36654;DHT22;22650;49.350;20.898;2024-01-11T02:33:44;-11.70;99.90
36654;DHT22;22650;49.350;20.898;2024-01-11T02:36:17;-11.80;99.90
36654;DHT22;22650;49.350;20.898;2024-01-11T02:38:52;-11.80;99.90
36654;DHT22;22650;49.350;20.898;2024-01-11T02:41:28;-11.80;99.90
36654;DHT22;22650;49.350;20.898;2024-01-11T02:44:02;-11.80;99.90
36654;DHT22;22650;49.350;20.898;2024-01-11T02:46:35;-11.80;99.90
36654;DHT22;22650;49.350;20.898;2024-01-11T02:49:09;-11.80;99.90
36654;DHT22;22650;49.350;20.898;2024-01-11T02:51:43;-11.80;99.90
36654;DHT22;22650;49.350;20.898;2024-01-11T02:54:16;-11.90;99.90
36654;DHT22;22650;49.350;20.898;2024-01-11T02:56:51;-11.90;99.90
36654;DHT22;22650;49.350;20.898;2024-01-11T02:59:25;-11.90;99.90
36654;DHT22;22650;49.350;20.898;2024-01-11T03:01:58;-11.90;99.90
36654;DHT22;22650;49.350;20.898;2024-01-11T03:04:32;-11.90;99.90
36654;DHT22;22650;49.350;20.898;2024-01-11T03:07:06;-11.90;99.90
36654;DHT22;22650;49.350;20.898;2024-01-11T03:09:39;-11.90;99.90
36654;DHT22;22650;49.350;20.898;2024-01-11T03:12:14;-11.90;99.90
36654;DHT22;22650;49.350;20.898;2024-01-11T03:14:48;-11.90;99.90
36654;DHT22;22650;49.350;20.898;2024-01-11T03:17:22;-11.90;99.90
36654;DHT22;22650;49.350;20.898;2024-01-11T03:19:55;-11.90;99.90
36654;DHT22;22650;49.350;20.898;2024-01-11T03:22:29;-11.90;99.90
36654;DHT22;22650;49.350;20.898;2024-01-11T03:25:03;-11.90;99.90
36654;DHT22;22650;49.350;20.898;2024-01-11T03:27:38;-11.90;99.90
36654;DHT22;22650;49.350;20.898;2024-01-11T03:30:12;-12.00;99.90
36654;DHT22;22650;49.350;20.898;2024-01-11T03:32:47;-12.00;99.90
36654;DHT22;22650;49.350;20.898;2024-01-11T03:35:20;-12.00;99.90
36654;DHT22;22650;49.350;20.898;2024-01-11T03:38:08;-12.00;99.90
36654;DHT22;22650;49.350;20.898;2024-01-11T03:40:55;-12.00;99.90
36654;DHT22;22650;49.350;20.898;2024-01-11T03:43:30;-12.00;99.90
36654;DHT22;22650;49.350;20.898;2024-01-11T03:46:04;-12.00;99.90
36654;DHT22;22650;49.350;20.898;2024-01-11T03:48:38;-12.00;99.90
36654;DHT22;22650;49.350;20.898;2024-01-11T03:51:11;-12.00;99.90
36654;DHT22;22650;49.350;20.898;2024-01-11T03:53:45;-12.10;99.90
36654;DHT22;22650;49.350;20.898;2024-01-11T03:56:19;-12.10;99.90
36654;DHT22;22650;49.350;20.898;2024-01-11T03:59:10;-12.10;99.90
36654;DHT22;22650;49.350;20.898;2024-01-11T04:01:57;-12.10;99.90
36654;DHT22;22650;49.350;20.898;2024-01-11T04:04:31;-12.10;99.90
36654;DHT22;22650;49.350;20.898;2024-01-11T04:07:05;-12.10;99.90
36654;DHT22;22650;49.350;20.898;2024-01-11T04:09:38;-12.10;99.90
36654;DHT22;22650;49.350;20.898;2024-01-11T04:12:12;-12.10;99.90
36654;DHT22;22650;49.350;20.898;2024-01-11T04:14:47;-12.10;99.90
36654;DHT22;22650;49.350;20.898;2024-01-11T04:17:20;-12.20;99.90
36654;DHT22;22650;49.350;20.898;2024-01-11T04:19:54;-12.10;99.90
36654;DHT22;22650;49.350;20.898;2024-01-11T04:22:28;-12.10;99.90
36654;DHT22;22650;49.350;20.898;2024-01-11T04:25:02;-12.20;99.90
36654;DHT22;22650;49.350;20.898;2024-01-11T04:27:36;-12.20;99.90
36654;DHT22;22650;49.350;20.898;2024-01-11T04:30:11;-12.20;99.90
36654;DHT22;22650;49.350;20.898;2024-01-11T04:32:45;-12.20;99.90
36654;DHT22;22650;49.350;20.898;2024-01-11T04:35:19;-12.20;99.90
36654;DHT22;22650;49.350;20.898;2024-01-11T04:37:53;-12.20;99.90
36654;DHT22;22650;49.350;20.898;2024-01-11T04:40:26;-12.20;99.90
36654;DHT22;22650;49.350;20.898;2024-01-11T04:43:00;-12.20;99.90
36654;DHT22;22650;49.350;20.898;2024-01-11T04:45:35;-12.20;99.90
36654;DHT22;22650;49.350;20.898;2024-01-11T04:48:09;-12.20;99.90
36654;DHT22;22650;49.350;20.898;2024-01-11T04:50:42;-12.20;99.90
36654;DHT22;22650;49.350;20.898;2024-01-11T04:53:17;-12.20;99.90
36654;DHT22;22650;49.350;20.898;2024-01-11T04:55:50;-12.20;99.90
36654;DHT22;22650;49.350;20.898;2024-01-11T04:58:24;-12.20;99.90
36654;DHT22;22650;49.350;20.898;2024-01-11T05:00:59;-12.20;99.90
36654;DHT22;22650;49.350;20.898;2024-01-11T05:03:33;-12.30;99.90
36654;DHT22;22650;49.350;20.898;2024-01-11T05:06:06;-12.30;99.90
36654;DHT22;22650;49.350;20.898;2024-01-11T05:08:40;-12.30;99.90
36654;DHT22;22650;49.350;20.898;2024-01-11T05:11:17;-12.30;99.90
36654;DHT22;22650;49.350;20.898;2024-01-11T05:13:51;-12.30;99.90
36654;DHT22;22650;49.350;20.898;2024-01-11T05:16:27;-12.30;99.90
36654;DHT22;22650;49.350;20.898;2024-01-11T05:19:01;-12.20;99.90
36654;DHT22;22650;49.350;20.898;2024-01-11T05:21:35;-12.20;99.90
36654;DHT22;22650;49.350;20.898;2024-01-11T05:24:08;-12.30;99.90
36654;DHT22;22650;49.350;20.898;2024-01-11T05:26:43;-12.30;99.90
36654;DHT22;22650;49.350;20.898;2024-01-11T05:29:16;-12.30;99.90
36654;DHT22;22650;49.350;20.898;2024-01-11T05:31:50;-12.30;99.90
36654;DHT22;22650;49.350;20.898;2024-01-11T05:34:24;-12.30;99.90
36654;DHT22;22650;49.350;20.898;2024-01-11T05:36:58;-12.30;99.90
36654;DHT22;22650;49.350;20.898;2024-01-11T05:39:32;-12.30;99.90
36654;DHT22;22650;49.350;20.898;2024-01-11T05:42:06;-12.40;99.90
36654;DHT22;22650;49.350;20.898;2024-01-11T05:44:41;-12.40;99.90
36654;DHT22;22650;49.350;20.898;2024-01-11T05:47:16;-12.40;99.90
36654;DHT22;22650;49.350;20.898;2024-01-11T05:49:49;-12.40;99.90
36654;DHT22;22650;49.350;20.898;2024-01-11T05:52:23;-12.40;99.90
36654;DHT22;22650;49.350;20.898;2024-01-11T05:54:57;-12.40;99.90
36654;DHT22;22650;49.350;20.898;2024-01-11T05:57:31;-12.50;99.90
36654;DHT22;22650;49.350;20.898;2024-01-11T06:00:05;-12.50;99.90
36654;DHT22;22650;49.350;20.898;2024-01-11T06:02:40;-12.50;99.90
36654;DHT22;22650;49.350;20.898;2024-01-11T06:05:14;-12.40;99.90
36654;DHT22;22650;49.350;20.898;2024-01-11T06:07:48;-12.40;99.90
36654;DHT22;22650;49.350;20.898;2024-01-11T06:10:21;-12.50;99.90
36654;DHT22;22650;49.350;20.898;2024-01-11T06:12:55;-12.50;99.90
36654;DHT22;22650;49.350;20.898;2024-01-11T06:15:28;-12.50;99.90
36654;DHT22;22650;49.350;20.898;2024-01-11T06:18:04;-12.50;99.90
36654;DHT22;22650;49.350;20.898;2024-01-11T06:20:38;-12.50;99.90
36654;DHT22;22650;49.350;20.898;2024-01-11T06:23:11;-12.50;99.90
36654;DHT22;22650;49.350;20.898;2024-01-11T06:25:45;-12.50;99.90
36654;DHT22;22650;49.350;20.898;2024-01-11T06:28:19;-12.50;99.90
36654;DHT22;22650;49.350;20.898;2024-01-11T06:30:53;-12.50;99.90
36654;DHT22;22650;49.350;20.898;2024-01-11T06:33:28;-12.50;99.90
36654;DHT22;22650;49.350;20.898;2024-01-11T06:36:02;-12.50;99.90
36654;DHT22;22650;49.350;20.898;2024-01-11T06:38:35;-12.60;99.90
36654;DHT22;22650;49.350;20.898;2024-01-11T06:41:09;-12.60;99.90
36654;DHT22;22650;49.350;20.898;2024-01-11T06:43:43;-12.50;99.90
36654;DHT22;22650;49.350;20.898;2024-01-11T06:46:20;-12.50;99.90
36654;DHT22;22650;49.350;20.898;2024-01-11T06:48:55;-12.50;99.90
36654;DHT22;22650;49.350;20.898;2024-01-11T06:51:29;-12.50;99.90
36654;DHT22;22650;49.350;20.898;2024-01-11T06:54:03;-12.50;99.90
36654;DHT22;22650;49.350;20.898;2024-01-11T06:56:36;-12.50;99.90
36654;DHT22;22650;49.350;20.898;2024-01-11T06:59:10;-12.50;99.90
36654;DHT22;22650;49.350;20.898;2024-01-11T07:01:44;-12.40;99.90
36654;DHT22;22650;49.350;20.898;2024-01-11T07:04:19;-12.40;99.90
36654;DHT22;22650;49.350;20.898;2024-01-11T07:06:52;-12.40;99.90
36654;DHT22;22650;49.350;20.898;2024-01-11T07:09:26;-12.40;99.90
36654;DHT22;22650;49.350;20.898;2024-01-11T07:11:59;-12.40;99.90
36654;DHT22;22650;49.350;20.898;2024-01-11T07:14:34;-12.30;99.90
36654;DHT22;22650;49.350;20.898;2024-01-11T07:17:07;-12.30;99.90
36654;DHT22;22650;49.350;20.898;2024-01-11T07:19:43;-12.30;99.90
36654;DHT22;22650;49.350;20.898;2024-01-11T07:22:16;-12.30;99.90
36654;DHT22;22650;49.350;20.898;2024-01-11T07:24:51;-12.20;99.90
36654;DHT22;22650;49.350;20.898;2024-01-11T07:27:24;-12.20;99.90
36654;DHT22;22650;49.350;20.898;2024-01-11T07:29:58;-12.20;99.90
36654;DHT22;22650;49.350;20.898;2024-01-11T07:32:32;-12.20;99.90
36654;DHT22;22650;49.350;20.898;2024-01-11T07:35:08;-12.10;99.90
36654;DHT22;22650;49.350;20.898;2024-01-11T07:37:47;-12.10;99.90
36654;DHT22;22650;49.350;20.898;2024-01-11T07:40:22;-12.10;99.90
36654;DHT22;22650;49.350;20.898;2024-01-11T07:42:55;-12.00;99.90
36654;DHT22;22650;49.350;20.898;2024-01-11T07:45:29;-12.00;99.90
36654;DHT22;22650;49.350;20.898;2024-01-11T07:48:04;-11.90;99.90
36654;DHT22;22650;49.350;20.898;2024-01-11T07:50:39;-11.90;99.90
36654;DHT22;22650;49.350;20.898;2024-01-11T07:53:13;-11.90;99.90
36654;DHT22;22650;49.350;20.898;2024-01-11T07:55:47;-11.90;99.90
36654;DHT22;22650;49.350;20.898;2024-01-11T07:58:20;-11.80;99.90
36654;DHT22;22650;49.350;20.898;2024-01-11T08:00:54;-11.80;99.90
36654;DHT22;22650;49.350;20.898;2024-01-11T08:03:27;-11.70;99.90
36654;DHT22;22650;49.350;20.898;2024-01-11T08:06:04;-11.70;99.90
36654;DHT22;22650;49.350;20.898;2024-01-11T08:08:40;-11.60;99.90
36654;DHT22;22650;49.350;20.898;2024-01-11T08:11:13;-11.60;99.90
36654;DHT22;22650;49.350;20.898;2024-01-11T08:13:49;-11.60;99.90
36654;DHT22;22650;49.350;20.898;2024-01-11T08:16:25;-11.50;99.90
36654;DHT22;22650;49.350;20.898;2024-01-11T08:18:58;-11.50;99.90
36654;DHT22;22650;49.350;20.898;2024-01-11T08:21:35;-11.40;99.90
36654;DHT22;22650;49.350;20.898;2024-01-11T08:24:08;-11.30;99.90
36654;DHT22;22650;49.350;20.898;2024-01-11T08:26:42;-11.30;99.90
36654;DHT22;22650;49.350;20.898;2024-01-11T08:29:16;-11.20;99.90
36654;DHT22;22650;49.350;20.898;2024-01-11T08:31:51;-11.10;99.90
36654;DHT22;22650;49.350;20.898;2024-01-11T08:34:27;-11.00;99.90
36654;DHT22;22650;49.350;20.898;2024-01-11T08:37:02;-10.90;99.90
36654;DHT22;22650;49.350;20.898;2024-01-11T08:39:36;-10.80;99.90
36654;DHT22;22650;49.350;20.898;2024-01-11T08:42:12;-10.70;99.90
36654;DHT22;22650;49.350;20.898;2024-01-11T08:44:47;-10.60;99.90
36654;DHT22;22650;49.350;20.898;2024-01-11T08:47:21;-10.50;99.90
36654;DHT22;22650;49.350;20.898;2024-01-11T08:49:55;-10.20;99.90
36654;DHT22;22650;49.350;20.898;2024-01-11T08:52:30;-9.90;99.90
36654;DHT22;22650;49.350;20.898;2024-01-11T08:55:04;-9.60;99.90
36654;DHT22;22650;49.350;20.898;2024-01-11T08:57:38;-9.30;99.90
36654;DHT22;22650;49.350;20.898;2024-01-11T09:00:12;-8.90;99.90
36654;DHT22;22650;49.350;20.898;2024-01-11T09:02:50;-8.70;99.90
36654;DHT22;22650;49.350;20.898;2024-01-11T09:05:23;-8.40;99.90
36654;DHT22;22650;49.350;20.898;2024-01-11T09:07:58;-8.10;99.90
36654;DHT22;22650;49.350;20.898;2024-01-11T09:10:33;-7.80;99.90
36654;DHT22;22650;49.350;20.898;2024-01-11T09:13:07;-7.50;99.90
36654;DHT22;22650;49.350;20.898;2024-01-11T09:15:43;-7.30;99.90
36654;DHT22;22650;49.350;20.898;2024-01-11T09:18:17;-7.10;99.90
36654;DHT22;22650;49.350;20.898;2024-01-11T09:20:51;-6.90;99.90
36654;DHT22;22650;49.350;20.898;2024-01-11T09:23:26;-6.60;99.90
36654;DHT22;22650;49.350;20.898;2024-01-11T09:26:00;-6.40;99.90
36654;DHT22;22650;49.350;20.898;2024-01-11T09:28:35;-6.30;99.90
36654;DHT22;22650;49.350;20.898;2024-01-11T09:31:08;-6.10;99.90
36654;DHT22;22650;49.350;20.898;2024-01-11T09:33:42;-6.10;99.90
36654;DHT22;22650;49.350;20.898;2024-01-11T09:36:18;-5.90;99.90
36654;DHT22;22650;49.350;20.898;2024-01-11T09:38:53;-5.90;99.90
36654;DHT22;22650;49.350;20.898;2024-01-11T09:41:29;-5.70;99.90
36654;DHT22;22650;49.350;20.898;2024-01-11T09:44:05;-5.60;99.90
36654;DHT22;22650;49.350;20.898;2024-01-11T09:46:39;-5.50;99.90
36654;DHT22;22650;49.350;20.898;2024-01-11T09:49:13;-5.40;99.90
36654;DHT22;22650;49.350;20.898;2024-01-11T09:51:49;-5.30;99.90
36654;DHT22;22650;49.350;20.898;2024-01-11T09:54:26;-5.20;99.90
36654;DHT22;22650;49.350;20.898;2024-01-11T09:57:02;-5.20;99.90
36654;DHT22;22650;49.350;20.898;2024-01-11T09:59:39;-5.20;99.90
36654;DHT22;22650;49.350;20.898;2024-01-11T10:02:13;-5.10;99.90
36654;DHT22;22650;49.350;20.898;2024-01-11T10:04:47;-5.00;99.90
36654;DHT22;22650;49.350;20.898;2024-01-11T10:07:22;-5.00;99.90
36654;DHT22;22650;49.350;20.898;2024-01-11T10:09:58;-5.00;99.90
36654;DHT22;22650;49.350;20.898;2024-01-11T10:12:34;-4.90;99.90
36654;DHT22;22650;49.350;20.898;2024-01-11T10:15:09;-4.80;99.90
36654;DHT22;22650;49.350;20.898;2024-01-11T10:17:43;-4.80;99.90
36654;DHT22;22650;49.350;20.898;2024-01-11T10:20:18;-4.70;99.90
36654;DHT22;22650;49.350;20.898;2024-01-11T10:22:57;-4.60;99.90
36654;DHT22;22650;49.350;20.898;2024-01-11T10:25:33;-4.50;99.90
36654;DHT22;22650;49.350;20.898;2024-01-11T10:28:07;-4.40;99.90
36654;DHT22;22650;49.350;20.898;2024-01-11T10:30:40;-4.40;99.90
36654;DHT22;22650;49.350;20.898;2024-01-11T10:33:14;-4.30;99.90
36654;DHT22;22650;49.350;20.898;2024-01-11T10:35:48;-4.20;99.90
36654;DHT22;22650;49.350;20.898;2024-01-11T10:38:24;-4.10;99.90
36654;DHT22;22650;49.350;20.898;2024-01-11T10:41:04;-4.00;99.90
36654;DHT22;22650;49.350;20.898;2024-01-11T10:43:38;-4.00;99.90
36654;DHT22;22650;49.350;20.898;2024-01-11T10:46:12;-3.90;99.90
36654;DHT22;22650;49.350;20.898;2024-01-11T10:48:56;-3.80;99.90
36654;DHT22;22650;49.350;20.898;2024-01-11T10:51:32;-3.80;99.90
36654;DHT22;22650;49.350;20.898;2024-01-11T10:54:06;-3.70;99.90
36654;DHT22;22650;49.350;20.898;2024-01-11T10:56:42;-3.70;99.90
36654;DHT22;22650;49.350;20.898;2024-01-11T10:59:18;-3.60;99.90
36654;DHT22;22650;49.350;20.898;2024-01-11T11:01:58;-3.50;99.90
36654;DHT22;22650;49.350;20.898;2024-01-11T11:04:39;-3.40;99.90
36654;DHT22;22650;49.350;20.898;2024-01-11T11:07:14;-3.20;99.90
36654;DHT22;22650;49.350;20.898;2024-01-11T11:09:49;-3.10;99.90
36654;DHT22;22650;49.350;20.898;2024-01-11T11:12:28;-3.00;99.90
36654;DHT22;22650;49.350;20.898;2024-01-11T11:15:02;-2.90;99.90
36654;DHT22;22650;49.350;20.898;2024-01-11T11:17:36;-2.80;99.90
36654;DHT22;22650;49.350;20.898;2024-01-11T11:20:11;-2.70;99.90
36654;DHT22;22650;49.350;20.898;2024-01-11T11:22:49;-2.60;99.90
36654;DHT22;22650;49.350;20.898;2024-01-11T11:25:36;-2.60;99.90
36654;DHT22;22650;49.350;20.898;2024-01-11T11:28:13;-2.50;99.90
36654;DHT22;22650;49.350;20.898;2024-01-11T11:30:48;-2.40;99.90
36654;DHT22;22650;49.350;20.898;2024-01-11T11:33:24;-2.30;99.90
36654;DHT22;22650;49.350;20.898;2024-01-11T11:35:59;-2.30;99.90
36654;DHT22;22650;49.350;20.898;2024-01-11T11:38:33;-2.20;99.90
36654;DHT22;22650;49.350;20.898;2024-01-11T11:41:10;-2.10;99.90
36654;DHT22;22650;49.350;20.898;2024-01-11T11:43:48;-2.00;99.90
36654;DHT22;22650;49.350;20.898;2024-01-11T11:46:21;-1.90;99.90
36654;DHT22;22650;49.350;20.898;2024-01-11T11:48:56;-1.90;99.90
36654;DHT22;22650;49.350;20.898;2024-01-11T11:51:30;-1.80;99.90
36654;DHT22;22650;49.350;20.898;2024-01-11T11:54:04;-1.80;99.90
36654;DHT22;22650;49.350;20.898;2024-01-11T11:56:38;-1.70;99.90
36654;DHT22;22650;49.350;20.898;2024-01-11T11:59:13;-1.60;99.90
36654;DHT22;22650;49.350;20.898;2024-01-11T12:01:47;-1.50;99.90
36654;DHT22;22650;49.350;20.898;2024-01-11T12:04:22;-1.40;99.90
36654;DHT22;22650;49.350;20.898;2024-01-11T12:06:55;-1.40;99.90
36654;DHT22;22650;49.350;20.898;2024-01-11T12:09:29;-1.30;99.90
36654;DHT22;22650;49.350;20.898;2024-01-11T12:12:04;-1.10;99.90
36654;DHT22;22650;49.350;20.898;2024-01-11T12:14:48;-1.00;99.90
36654;DHT22;22650;49.350;20.898;2024-01-11T12:17:22;-0.90;99.90
36654;DHT22;22650;49.350;20.898;2024-01-11T12:19:56;-0.80;99.90
36654;DHT22;22650;49.350;20.898;2024-01-11T12:22:29;-0.70;99.90
36654;DHT22;22650;49.350;20.898;2024-01-11T12:25:03;-0.60;99.90
36654;DHT22;22650;49.350;20.898;2024-01-11T12:27:38;-0.50;99.90
36654;DHT22;22650;49.350;20.898;2024-01-11T12:30:14;-0.40;99.90
36654;DHT22;22650;49.350;20.898;2024-01-11T12:32:50;-0.30;99.90
36654;DHT22;22650;49.350;20.898;2024-01-11T12:35:24;-0.20;99.90
36654;DHT22;22650;49.350;20.898;2024-01-11T12:37:59;-0.20;99.90
36654;DHT22;22650;49.350;20.898;2024-01-11T12:40:33;-0.10;99.90
36654;DHT22;22650;49.350;20.898;2024-01-11T12:43:11;-0.10;99.90
36654;DHT22;22650;49.350;20.898;2024-01-11T12:45:46;-0.10;99.90
36654;DHT22;22650;49.350;20.898;2024-01-11T12:48:20;-0.10;99.90
36654;DHT22;22650;49.350;20.898;2024-01-11T12:50:55;-0.10;99.90
36654;DHT22;22650;49.350;20.898;2024-01-11T12:53:45;-0.10;99.90
36654;DHT22;22650;49.350;20.898;2024-01-11T12:56:20;-0.10;99.90
36654;DHT22;22650;49.350;20.898;2024-01-11T12:59:05;0.00;99.90
36654;DHT22;22650;49.350;20.898;2024-01-11T13:01:40;0.10;99.90
36654;DHT22;22650;49.350;20.898;2024-01-11T13:04:14;0.10;99.90
36654;DHT22;22650;49.350;20.898;2024-01-11T13:06:48;0.20;99.90
36654;DHT22;22650;49.350;20.898;2024-01-11T13:09:22;0.20;99.90
36654;DHT22;22650;49.350;20.898;2024-01-11T13:11:56;0.30;99.90
36654;DHT22;22650;49.350;20.898;2024-01-11T13:14:29;0.30;99.90
36654;DHT22;22650;49.350;20.898;2024-01-11T13:17:05;0.40;99.90
36654;DHT22;22650;49.350;20.898;2024-01-11T13:19:40;0.40;99.90
36654;DHT22;22650;49.350;20.898;2024-01-11T13:22:13;0.50;99.90
36654;DHT22;22650;49.350;20.898;2024-01-11T13:24:47;0.60;99.90
36654;DHT22;22650;49.350;20.898;2024-01-11T13:27:21;0.60;98.60
36654;DHT22;22650;49.350;20.898;2024-01-11T13:29:55;0.60;99.90
36654;DHT22;22650;49.350;20.898;2024-01-11T13:32:30;0.70;95.00
36654;DHT22;22650;49.350;20.898;2024-01-11T13:35:04;0.70;96.00
36654;DHT22;22650;49.350;20.898;2024-01-11T13:37:38;0.70;95.60
36654;DHT22;22650;49.350;20.898;2024-01-11T13:40:12;0.80;95.20
36654;DHT22;22650;49.350;20.898;2024-01-11T13:42:46;0.80;94.80
36654;DHT22;22650;49.350;20.898;2024-01-11T13:45:19;0.80;95.20
36654;DHT22;22650;49.350;20.898;2024-01-11T13:47:54;0.80;93.40
36654;DHT22;22650;49.350;20.898;2024-01-11T13:50:28;0.90;94.10
36654;DHT22;22650;49.350;20.898;2024-01-11T13:53:02;0.90;93.50
36654;DHT22;22650;49.350;20.898;2024-01-11T13:55:36;0.90;94.10
36654;DHT22;22650;49.350;20.898;2024-01-11T13:58:12;1.00;93.70
36654;DHT22;22650;49.350;20.898;2024-01-11T14:00:46;1.00;92.90
36654;DHT22;22650;49.350;20.898;2024-01-11T14:03:21;1.00;92.40
36654;DHT22;22650;49.350;20.898;2024-01-11T14:05:54;1.00;93.30
36654;DHT22;22650;49.350;20.898;2024-01-11T14:08:28;1.00;92.70
36654;DHT22;22650;49.350;20.898;2024-01-11T14:11:02;1.00;92.50
36654;DHT22;22650;49.350;20.898;2024-01-11T14:13:36;1.00;93.30
36654;DHT22;22650;49.350;20.898;2024-01-11T14:16:09;1.00;93.70
36654;DHT22;22650;49.350;20.898;2024-01-11T14:18:46;1.00;94.10
36654;DHT22;22650;49.350;20.898;2024-01-11T14:21:21;1.00;93.10
36654;DHT22;22650;49.350;20.898;2024-01-11T14:23:57;1.10;93.60
36654;DHT22;22650;49.350;20.898;2024-01-11T14:26:31;1.00;93.60
36654;DHT22;22650;49.350;20.898;2024-01-11T14:29:05;1.00;94.20
36654;DHT22;22650;49.350;20.898;2024-01-11T14:31:39;1.00;93.80
36654;DHT22;22650;49.350;20.898;2024-01-11T14:34:14;1.00;95.00
36654;DHT22;22650;49.350;20.898;2024-01-11T14:36:51;1.00;95.30
36654;DHT22;22650;49.350;20.898;2024-01-11T14:39:25;1.00;95.30
36654;DHT22;22650;49.350;20.898;2024-01-11T14:41:59;1.00;95.40
36654;DHT22;22650;49.350;20.898;2024-01-11T14:44:32;0.90;96.20
36654;DHT22;22650;49.350;20.898;2024-01-11T14:47:06;1.00;95.30
36654;DHT22;22650;49.350;20.898;2024-01-11T14:49:41;0.90;96.00
36654;DHT22;22650;49.350;20.898;2024-01-11T14:52:16;0.90;96.30
36654;DHT22;22650;49.350;20.898;2024-01-11T14:54:51;0.90;96.20
36654;DHT22;22650;49.350;20.898;2024-01-11T14:57:24;0.90;95.70
36654;DHT22;22650;49.350;20.898;2024-01-11T14:59:58;0.90;96.00
36654;DHT22;22650;49.350;20.898;2024-01-11T15:02:31;0.90;96.20
36654;DHT22;22650;49.350;20.898;2024-01-11T15:05:08;0.90;96.80
36654;DHT22;22650;49.350;20.898;2024-01-11T15:07:41;0.90;96.60
36654;DHT22;22650;49.350;20.898;2024-01-11T15:10:15;1.00;97.40
36654;DHT22;22650;49.350;20.898;2024-01-11T15:12:50;1.00;98.50
36654;DHT22;22650;49.350;20.898;2024-01-11T15:15:23;0.90;99.90
36654;DHT22;22650;49.350;20.898;2024-01-11T15:17:57;0.90;99.10
36654;DHT22;22650;49.350;20.898;2024-01-11T15:20:33;0.90;99.00
36654;DHT22;22650;49.350;20.898;2024-01-11T15:23:06;0.90;99.90
36654;DHT22;22650;49.350;20.898;2024-01-11T15:25:40;0.90;99.90
36654;DHT22;22650;49.350;20.898;2024-01-11T15:28:14;0.90;99.90
36654;DHT22;22650;49.350;20.898;2024-01-11T15:30:47;0.90;99.90
36654;DHT22;22650;49.350;20.898;2024-01-11T15:33:22;0.90;99.90
36654;DHT22;22650;49.350;20.898;2024-01-11T15:35:57;0.90;99.90
36654;DHT22;22650;49.350;20.898;2024-01-11T15:38:31;0.90;99.90
36654;DHT22;22650;49.350;20.898;2024-01-11T15:41:05;0.90;99.90
36654;DHT22;22650;49.350;20.898;2024-01-11T15:43:39;0.90;99.90
36654;DHT22;22650;49.350;20.898;2024-01-11T15:46:12;0.80;99.90
36654;DHT22;22650;49.350;20.898;2024-01-11T15:48:46;0.80;99.90
36654;DHT22;22650;49.350;20.898;2024-01-11T15:51:21;0.80;99.90
36654;DHT22;22650;49.350;20.898;2024-01-11T15:53:55;0.70;99.90
36654;DHT22;22650;49.350;20.898;2024-01-11T15:56:29;0.70;99.90